If you wish to contribute or participate in the discussions about articles you are invited to join SKYbrary as a registered user

 Actions

Osan Air Base

From SKYbrary Wiki

RKSO
Airport
ICAO: RKSO – IATA: OSN
Summary
Name Osan Air Base
Region
Territory South Korea KR.gif
Location , Kyonggi-do
Serving Osan
Elevation 11.582 m
38 ft
38 ft11.582 m
Type large airport
Coordinates 37° 5' 26.22" N, 127° 1' 46.54" E
Runways
Designator Length Width Surface ROPS
9/27 2744 m9,002.625 ft
46 m150.919 ft
CON yes/yes


METAR
Observation RKSO 290018Z 00000KT 1 1/2SM BR FEW004 18/17 A2992 RMK AO2A SLP135
Station Osan Ab
Date/Time 29 September 2020 00:18:00
Wind direction
Wind speed 00 kts
Lowest cloud amount few clouds
Temperature 18°C
Dew point 17°C
Humidity 93%
QNH hPa
Weather condition mist